createdAt,value
2023-01-21T00:02:20.427Z,8.70
2023-01-21T00:04:46.954Z,8.70
2023-01-21T00:07:13.439Z,8.70
2023-01-21T00:09:43.885Z,8.70
2023-01-21T00:12:10.365Z,8.70
2023-01-21T00:14:36.847Z,8.70
2023-01-21T00:17:03.314Z,8.70
2023-01-21T00:19:29.788Z,8.60
2023-01-21T00:21:56.268Z,8.60
2023-01-21T00:24:25.931Z,8.60
2023-01-21T00:26:52.413Z,8.60
2023-01-21T00:29:18.888Z,8.60
2023-01-21T00:31:45.486Z,8.70
2023-01-21T00:34:12.017Z,8.70
2023-01-21T00:36:38.497Z,8.70
2023-01-21T00:39:04.995Z,8.70
2023-01-21T00:41:31.487Z,8.70
2023-01-21T00:43:57.975Z,8.70
2023-01-21T00:46:24.470Z,8.60
2023-01-21T00:48:50.982Z,8.70
2023-01-21T00:51:17.488Z,8.70
2023-01-21T00:53:44.033Z,8.70
2023-01-21T00:56:10.514Z,8.70
2023-01-21T00:58:37.231Z,8.70
2023-01-21T01:01:03.823Z,8.70
2023-01-21T01:03:30.363Z,8.70
2023-01-21T01:05:56.843Z,8.70
2023-01-21T01:08:23.317Z,8.70
2023-01-21T01:10:49.801Z,8.70
2023-01-21T01:13:16.270Z,8.70
2023-01-21T01:15:42.775Z,8.70
2023-01-21T01:18:09.269Z,8.70
2023-01-21T01:20:35.747Z,8.70
2023-01-21T01:23:02.224Z,8.70
2023-01-21T01:25:28.701Z,8.70
2023-01-21T01:27:55.158Z,8.70
2023-01-21T01:30:21.635Z,8.70
2023-01-21T01:32:48.092Z,8.70
2023-01-21T01:35:14.579Z,8.60
2023-01-21T01:37:41.066Z,8.70
2023-01-21T01:40:07.557Z,8.70
2023-01-21T01:42:34.033Z,8.70
2023-01-21T01:45:00.529Z,8.70
2023-01-21T01:47:27.023Z,8.70
2023-01-21T01:49:53.514Z,8.70
2023-01-21T01:52:19.997Z,8.70
2023-01-21T01:54:46.483Z,8.60
2023-01-21T01:57:13.075Z,8.60
2023-01-21T01:59:39.587Z,8.70
2023-01-21T02:02:06.107Z,8.70
2023-01-21T02:04:32.602Z,8.70
2023-01-21T02:06:59.073Z,8.60
2023-01-21T02:09:25.578Z,8.60
2023-01-21T02:11:52.059Z,8.70
2023-01-21T02:14:18.545Z,8.70
2023-01-21T02:16:45.011Z,8.70
2023-01-21T02:19:11.465Z,8.60
2023-01-21T02:21:37.953Z,8.70
2023-01-21T02:24:04.429Z,8.70
2023-01-21T02:26:30.923Z,8.70
2023-01-21T02:28:57.397Z,8.70
2023-01-21T02:31:23.929Z,8.70
2023-01-21T02:33:50.438Z,8.60
2023-01-21T02:36:16.918Z,8.70
2023-01-21T02:38:43.391Z,8.70
2023-01-21T02:41:09.871Z,8.70
2023-01-21T02:43:36.361Z,8.70
2023-01-21T02:46:02.856Z,8.60
2023-01-21T02:48:29.331Z,8.60
2023-01-21T02:50:55.841Z,8.60
2023-01-21T02:53:22.314Z,8.60
2023-01-21T02:55:48.794Z,8.60
2023-01-21T02:58:15.271Z,8.70
2023-01-21T03:00:41.792Z,8.60
2023-01-21T03:03:08.276Z,8.60
2023-01-21T03:05:38.027Z,8.60
2023-01-21T03:08:04.505Z,8.60
2023-01-21T03:10:30.988Z,8.60
2023-01-21T03:12:57.490Z,8.50
2023-01-21T03:15:23.990Z,8.50
2023-01-21T03:17:50.468Z,8.50
2023-01-21T03:20:17.113Z,8.60
2023-01-21T03:22:43.716Z,8.60
2023-01-21T03:25:10.223Z,8.50
2023-01-21T03:27:36.703Z,8.50
2023-01-21T03:30:03.176Z,8.50
2023-01-21T03:32:29.657Z,8.50
2023-01-21T03:34:56.124Z,8.50
2023-01-21T03:37:22.601Z,8.60
2023-01-21T03:39:49.086Z,8.60
2023-01-21T03:42:20.085Z,8.60
2023-01-21T03:44:46.578Z,8.60
2023-01-21T03:47:13.056Z,8.60
2023-01-21T03:49:39.541Z,8.60
2023-01-21T03:52:06.025Z,8.60
2023-01-21T03:54:32.497Z,8.70
2023-01-21T03:56:58.968Z,8.60
2023-01-21T03:59:25.439Z,8.60
2023-01-21T04:01:51.964Z,8.60
2023-01-21T04:04:18.444Z,8.60
2023-01-21T04:06:44.946Z,8.60
2023-01-21T04:09:11.430Z,8.60
2023-01-21T04:11:38.134Z,8.60
2023-01-21T04:14:04.647Z,8.60
2023-01-21T04:16:31.169Z,8.60
2023-01-21T04:18:57.667Z,8.60
2023-01-21T04:21:24.150Z,8.60
2023-01-21T04:23:50.627Z,8.60
2023-01-21T04:26:17.112Z,8.60
2023-01-21T04:28:43.595Z,8.60
2023-01-21T04:31:10.146Z,8.60
2023-01-21T04:33:36.661Z,8.60
2023-01-21T04:36:03.141Z,8.60
2023-01-21T04:38:29.620Z,8.60
2023-01-21T04:40:56.105Z,8.60
2023-01-21T04:43:22.576Z,8.60
2023-01-21T04:45:49.076Z,8.60
2023-01-21T04:48:15.572Z,8.60
2023-01-21T04:50:42.039Z,8.60
2023-01-21T04:53:08.509Z,8.60
2023-01-21T04:55:35.012Z,8.60
2023-01-21T04:58:01.482Z,8.60
2023-01-21T05:00:27.994Z,8.60
2023-01-21T05:02:54.474Z,8.60
2023-01-21T05:05:20.973Z,8.60
2023-01-21T05:07:47.438Z,8.60
2023-01-21T05:10:14.021Z,8.60
2023-01-21T05:12:40.575Z,8.60
2023-01-21T05:15:07.079Z,8.60
2023-01-21T05:17:33.556Z,8.60
2023-01-21T05:20:00.033Z,8.60
2023-01-21T05:22:26.530Z,8.60
2023-01-21T05:24:53.005Z,8.60
2023-01-21T05:27:19.491Z,8.60
2023-01-21T05:29:45.975Z,8.60
2023-01-21T05:32:12.446Z,8.60
2023-01-21T05:34:38.930Z,8.60
2023-01-21T05:37:05.414Z,8.60
2023-01-21T05:39:31.886Z,8.60
2023-01-21T05:41:58.374Z,8.70
2023-01-21T05:44:24.839Z,8.60
2023-01-21T05:46:51.310Z,8.70
2023-01-21T05:49:17.775Z,8.60
2023-01-21T05:51:44.246Z,8.60
2023-01-21T05:54:10.724Z,8.60
2023-01-21T05:56:37.185Z,8.60
2023-01-21T05:59:03.657Z,8.60
2023-01-21T06:01:30.176Z,8.60
2023-01-21T06:03:56.692Z,8.60
2023-01-21T06:06:23.340Z,8.60
2023-01-21T06:08:49.799Z,8.60
2023-01-21T06:14:06.794Z,8.60
2023-01-21T06:16:33.268Z,8.60
2023-01-21T06:18:59.754Z,8.60
2023-01-21T06:21:26.247Z,8.50
2023-01-21T06:23:52.761Z,8.50
2023-01-21T06:26:19.246Z,8.60
2023-01-21T06:28:45.696Z,8.50
2023-01-21T06:31:12.237Z,8.50
2023-01-21T06:33:38.807Z,8.50
2023-01-21T06:36:05.288Z,8.50
2023-01-21T06:38:31.770Z,8.50
2023-01-21T06:40:58.266Z,8.50
2023-01-21T06:43:24.734Z,8.50
2023-01-21T06:45:51.234Z,8.50
2023-01-21T06:48:17.733Z,8.50
2023-01-21T06:50:44.270Z,8.50
2023-01-21T06:53:10.722Z,8.50
2023-01-21T06:55:37.199Z,8.50
2023-01-21T06:58:03.702Z,8.50
2023-01-21T07:00:30.191Z,8.50
2023-01-21T07:02:56.697Z,8.50
2023-01-21T07:05:24.302Z,8.50
2023-01-21T07:07:50.784Z,8.50
2023-01-21T07:10:17.487Z,8.50
2023-01-21T07:12:44.068Z,8.50
2023-01-21T07:15:10.539Z,8.50
2023-01-21T07:17:37.014Z,8.50
2023-01-21T07:20:03.492Z,8.50
2023-01-21T07:22:29.978Z,8.50
2023-01-21T07:24:56.462Z,8.50
2023-01-21T07:27:22.945Z,8.40
2023-01-21T07:29:50.223Z,8.50
2023-01-21T07:32:16.715Z,8.50
2023-01-21T07:34:43.188Z,8.40
2023-01-21T07:37:09.651Z,8.40
2023-01-21T07:39:36.190Z,8.40
2023-01-21T07:42:02.693Z,8.40
2023-01-21T07:44:29.167Z,8.40
2023-01-21T07:46:55.686Z,8.50
2023-01-21T07:49:22.174Z,8.50
2023-01-21T07:51:48.661Z,8.50
2023-01-21T07:54:15.141Z,8.50
2023-01-21T07:56:41.699Z,8.40
2023-01-21T07:59:08.169Z,8.40
2023-01-21T08:01:34.700Z,8.40
2023-01-21T08:04:01.241Z,8.40
2023-01-21T08:06:27.732Z,8.50
2023-01-21T08:08:54.214Z,8.40
2023-01-21T08:11:20.681Z,8.50
2023-01-21T08:13:47.157Z,8.50
2023-01-21T08:16:13.691Z,8.50
2023-01-21T08:18:40.275Z,8.50
2023-01-21T08:21:06.754Z,8.40
2023-01-21T08:23:33.220Z,8.50
2023-01-21T08:25:59.712Z,8.50
2023-01-21T08:28:26.189Z,8.50
2023-01-21T08:30:52.701Z,8.50
2023-01-21T08:33:19.203Z,8.50
2023-01-21T08:35:45.684Z,8.50
2023-01-21T08:38:12.165Z,8.50
2023-01-21T08:40:38.627Z,8.50
2023-01-21T08:43:05.118Z,8.50
2023-01-21T08:45:31.621Z,8.50
2023-01-21T08:47:58.156Z,8.50
2023-01-21T08:50:24.645Z,8.50
2023-01-21T08:52:51.120Z,8.50
2023-01-21T08:55:17.879Z,8.50
2023-01-21T08:57:44.467Z,8.40
2023-01-21T09:00:10.949Z,8.40
2023-01-21T09:02:40.636Z,8.50
2023-01-21T09:05:07.113Z,8.50
2023-01-21T09:07:33.586Z,8.50
2023-01-21T09:10:00.063Z,8.50
2023-01-21T09:12:26.560Z,8.50
2023-01-21T09:14:53.058Z,8.40
2023-01-21T09:17:19.521Z,8.40
2023-01-21T09:19:45.985Z,8.50
2023-01-21T09:22:12.451Z,8.40
2023-01-21T09:24:38.931Z,8.40
2023-01-21T09:27:05.428Z,8.50
2023-01-21T09:29:31.914Z,8.40
2023-01-21T09:31:58.427Z,8.40
2023-01-21T09:34:24.920Z,8.40
2023-01-21T09:36:51.398Z,8.50
2023-01-21T09:39:20.380Z,8.50
2023-01-21T09:41:46.874Z,8.50
2023-01-21T09:44:13.381Z,8.50
2023-01-21T09:46:39.899Z,8.40
2023-01-21T09:49:06.380Z,8.50
2023-01-21T09:51:32.854Z,8.40
2023-01-21T09:53:59.338Z,8.50
2023-01-21T09:56:25.828Z,8.40
2023-01-21T09:58:52.330Z,8.50
2023-01-21T10:01:20.346Z,8.40
2023-01-21T10:03:46.869Z,8.50
2023-01-21T10:06:13.433Z,8.40
2023-01-21T10:08:39.884Z,8.40
2023-01-21T10:11:06.362Z,8.50
2023-01-21T10:13:32.819Z,8.50
2023-01-21T10:15:59.300Z,8.50
2023-01-21T10:18:25.781Z,8.40
2023-01-21T10:20:52.256Z,8.40
2023-01-21T10:23:18.724Z,8.40
2023-01-21T10:25:50.408Z,8.50
2023-01-21T10:28:16.919Z,8.50
2023-01-21T10:30:43.488Z,8.40
2023-01-21T10:33:10.035Z,8.40
2023-01-21T10:35:36.520Z,8.40
2023-01-21T10:38:03.002Z,8.40
2023-01-21T10:40:29.483Z,8.40
2023-01-21T10:42:55.951Z,8.40
2023-01-21T10:45:22.436Z,8.40
2023-01-21T10:47:48.927Z,8.40
2023-01-21T10:50:15.404Z,8.40
2023-01-21T10:52:41.888Z,8.40
2023-01-21T10:55:08.394Z,8.40
2023-01-21T10:57:34.872Z,8.40
2023-01-21T11:00:01.366Z,8.40
2023-01-21T11:02:27.956Z,8.40
2023-01-21T11:04:54.494Z,8.40
2023-01-21T11:07:20.955Z,8.40
2023-01-21T11:09:47.436Z,8.40
2023-01-21T11:12:13.924Z,8.40
2023-01-21T11:14:40.397Z,8.40
2023-01-21T11:17:07.047Z,8.40
2023-01-21T11:19:33.704Z,8.40
2023-01-21T11:22:00.177Z,8.50
2023-01-21T11:24:26.639Z,8.50
2023-01-21T11:26:53.104Z,8.50
2023-01-21T11:29:19.586Z,8.50
2023-01-21T11:31:46.129Z,8.50
2023-01-21T11:34:12.643Z,8.50
2023-01-21T11:36:39.125Z,8.50
2023-01-21T11:39:08.554Z,8.50
2023-01-21T11:41:38.471Z,8.50
2023-01-21T11:44:04.959Z,8.50
2023-01-21T11:46:31.478Z,8.50
2023-01-21T11:48:58.003Z,8.50
2023-01-21T11:51:24.483Z,8.40
2023-01-21T11:53:50.938Z,8.40
2023-01-21T11:56:17.420Z,8.40
2023-01-21T11:58:43.882Z,8.40
2023-01-21T12:01:10.372Z,8.40
2023-01-21T12:03:36.880Z,8.40
2023-01-21T12:06:03.372Z,8.40
2023-01-21T12:08:29.857Z,8.40
2023-01-21T12:10:56.349Z,8.40
2023-01-21T12:13:22.989Z,8.40
2023-01-21T12:15:49.544Z,8.40
2023-01-21T12:18:16.114Z,8.40
2023-01-21T12:20:42.602Z,8.40
2023-01-21T12:23:09.090Z,8.40
2023-01-21T12:25:38.485Z,8.40
2023-01-21T12:28:04.955Z,8.40
2023-01-21T12:30:31.490Z,8.40
2023-01-21T12:32:57.967Z,8.40
2023-01-21T12:35:24.490Z,8.40
2023-01-21T12:37:50.965Z,8.40
2023-01-21T12:40:17.743Z,8.40
2023-01-21T12:42:44.370Z,8.40
2023-01-21T12:45:10.835Z,8.40
2023-01-21T12:47:37.311Z,8.40
2023-01-21T12:50:03.765Z,8.40
2023-01-21T12:52:30.243Z,8.40
2023-01-21T12:54:56.710Z,8.40
2023-01-21T12:57:23.180Z,8.30
2023-01-21T12:59:49.648Z,8.30
2023-01-21T13:02:16.196Z,8.30
2023-01-21T13:04:42.721Z,8.30
2023-01-21T13:07:14.533Z,8.30
2023-01-21T13:09:41.008Z,8.30
2023-01-21T13:12:07.481Z,8.30
2023-01-21T13:14:33.968Z,8.40
2023-01-21T13:17:02.554Z,8.30
2023-01-21T13:19:29.006Z,8.40
2023-01-21T13:21:56.582Z,8.30
2023-01-21T13:24:23.076Z,8.40
2023-01-21T13:26:49.559Z,8.30
2023-01-21T13:29:16.043Z,8.30
2023-01-21T13:31:42.591Z,8.30
2023-01-21T13:34:09.092Z,8.30
2023-01-21T13:36:35.555Z,8.30
2023-01-21T13:39:02.031Z,8.30
2023-01-21T13:41:28.514Z,8.30
2023-01-21T13:43:54.977Z,8.30
2023-01-21T13:46:21.460Z,8.30
2023-01-21T13:48:47.927Z,8.30
2023-01-21T13:51:14.438Z,8.30
2023-01-21T13:53:40.921Z,8.30
2023-01-21T13:56:07.391Z,8.40
2023-01-21T13:58:33.861Z,8.30
2023-01-21T14:01:00.397Z,8.30
2023-01-21T14:03:26.909Z,8.30
2023-01-21T14:05:53.386Z,8.30
2023-01-21T14:08:22.978Z,8.30
2023-01-21T14:10:49.449Z,8.40
2023-01-21T14:13:15.911Z,8.30
2023-01-21T14:15:42.424Z,8.30
2023-01-21T14:18:08.890Z,8.30
2023-01-21T14:20:35.366Z,8.40
2023-01-21T14:23:01.828Z,8.30
2023-01-21T14:25:28.320Z,8.40
2023-01-21T14:27:54.787Z,8.30
2023-01-21T14:30:21.268Z,8.30
2023-01-21T14:32:47.762Z,8.30
2023-01-21T14:35:14.233Z,8.30
2023-01-21T14:37:42.883Z,8.20
2023-01-21T14:40:10.294Z,8.30
2023-01-21T14:42:37.893Z,8.30
2023-01-21T14:45:04.399Z,8.30
2023-01-21T14:47:30.864Z,8.30
2023-01-21T14:49:57.342Z,8.30
2023-01-21T14:52:23.822Z,8.30
2023-01-21T14:54:50.288Z,8.30
2023-01-21T14:57:18.970Z,8.20
2023-01-21T14:59:45.637Z,8.20
2023-01-21T15:02:12.145Z,8.30
2023-01-21T15:04:38.660Z,8.20
2023-01-21T15:07:05.124Z,8.20
2023-01-21T15:09:31.590Z,8.20
2023-01-21T15:11:58.057Z,8.20
2023-01-21T15:14:24.524Z,8.20
2023-01-21T15:16:56.652Z,8.20
2023-01-21T15:19:24.069Z,8.30
2023-01-21T15:21:50.560Z,8.20
2023-01-21T15:24:20.636Z,8.30
2023-01-21T15:26:47.124Z,8.30
2023-01-21T15:29:13.585Z,8.30
2023-01-21T15:31:40.178Z,8.30
2023-01-21T15:34:06.748Z,8.30
2023-01-21T15:36:33.237Z,8.30
2023-01-21T15:39:01.716Z,8.30
2023-01-21T15:41:28.618Z,8.30
2023-01-21T15:43:55.443Z,8.30
2023-01-21T15:46:21.965Z,8.30
2023-01-21T15:48:48.474Z,8.30
2023-01-21T15:51:14.983Z,8.30
2023-01-21T15:53:41.463Z,8.30
2023-01-21T15:56:07.940Z,8.30
2023-01-21T15:58:34.407Z,8.30
2023-01-21T16:01:00.984Z,8.30
2023-01-21T16:03:27.469Z,8.30
2023-01-21T16:05:54.121Z,8.30
2023-01-21T16:08:20.580Z,8.30
2023-01-21T16:10:47.083Z,8.30
2023-01-21T16:13:13.552Z,8.30
2023-01-21T16:15:40.072Z,8.30
2023-01-21T16:18:06.645Z,8.30
2023-01-21T16:20:33.139Z,8.30
2023-01-21T16:23:02.831Z,8.30
2023-01-21T16:25:29.332Z,8.30
2023-01-21T16:27:55.803Z,8.30
2023-01-21T16:30:22.291Z,8.30
2023-01-21T16:32:48.771Z,8.30
2023-01-21T16:35:15.735Z,8.40
2023-01-21T16:37:43.662Z,8.30
2023-01-21T16:40:10.229Z,8.40
2023-01-21T16:42:36.759Z,8.40
2023-01-21T16:45:03.286Z,8.40
2023-01-21T16:47:29.750Z,8.40
2023-01-21T16:49:56.268Z,8.40
2023-01-21T16:52:22.760Z,8.40
2023-01-21T16:54:49.251Z,8.40
2023-01-21T16:57:15.732Z,8.40
2023-01-21T16:59:42.227Z,8.40
2023-01-21T17:02:08.721Z,8.40
2023-01-21T17:04:35.198Z,8.40
2023-01-21T17:07:01.688Z,8.40
2023-01-21T17:09:28.199Z,8.40
2023-01-21T17:11:54.698Z,8.40
2023-01-21T17:17:05.591Z,8.40
2023-01-21T17:19:32.066Z,8.40
2023-01-21T17:21:58.542Z,8.40
2023-01-21T17:24:25.098Z,8.40
2023-01-21T17:26:51.581Z,8.40
2023-01-21T17:29:18.069Z,8.40
2023-01-21T17:31:44.688Z,8.40
2023-01-21T17:34:11.213Z,8.40
2023-01-21T17:36:37.695Z,8.40
2023-01-21T17:39:04.181Z,8.40
2023-01-21T17:41:30.660Z,8.40
2023-01-21T17:43:57.139Z,8.40
2023-01-21T17:46:23.694Z,8.40
2023-01-21T17:48:50.223Z,8.40
2023-01-21T17:51:16.874Z,8.40
2023-01-21T17:53:45.970Z,8.40
2023-01-21T17:56:12.830Z,8.40
2023-01-21T17:58:39.322Z,8.40
2023-01-21T18:01:05.784Z,8.40
2023-01-21T18:03:32.313Z,8.40
2023-01-21T18:05:58.802Z,8.40
2023-01-21T18:08:25.313Z,8.40
2023-01-21T18:10:51.781Z,8.40
2023-01-21T18:13:18.279Z,8.40
2023-01-21T18:15:44.840Z,8.40
2023-01-21T18:18:11.357Z,8.40
2023-01-21T18:20:37.861Z,8.30
2023-01-21T18:23:04.322Z,8.30
2023-01-21T18:25:30.798Z,8.30
2023-01-21T18:27:57.268Z,8.30
2023-01-21T18:30:23.743Z,8.30
2023-01-21T18:32:50.212Z,8.30
2023-01-21T18:35:16.937Z,8.40
2023-01-21T18:37:43.588Z,8.20
2023-01-21T18:40:10.138Z,8.30
2023-01-21T18:42:36.636Z,8.30
2023-01-21T18:45:03.117Z,8.30
2023-01-21T18:47:29.600Z,8.30
2023-01-21T18:49:56.091Z,8.30
2023-01-21T18:52:22.572Z,8.30
2023-01-21T18:54:49.054Z,8.30
2023-01-21T18:57:15.516Z,8.30
2023-01-21T18:59:41.996Z,8.30
2023-01-21T19:02:08.507Z,8.30
2023-01-21T19:04:35.064Z,8.30
2023-01-21T19:07:01.567Z,8.30
2023-01-21T19:09:28.059Z,8.30
2023-01-21T19:11:54.521Z,8.30
2023-01-21T19:14:21.032Z,8.30
2023-01-21T19:16:47.529Z,8.30
2023-01-21T19:19:13.991Z,8.30
2023-01-21T19:21:40.485Z,8.40
2023-01-21T19:24:06.952Z,8.30
2023-01-21T19:26:33.430Z,8.30
2023-01-21T19:28:59.897Z,8.30
2023-01-21T19:31:26.538Z,8.30
2023-01-21T19:33:53.093Z,8.40
2023-01-21T19:36:19.580Z,8.30
2023-01-21T19:38:46.076Z,8.30
2023-01-21T19:41:12.577Z,8.30
2023-01-21T19:43:39.064Z,8.30
2023-01-21T19:46:05.542Z,8.30
2023-01-21T19:48:32.012Z,8.30
2023-01-21T19:50:58.592Z,8.30
2023-01-21T19:53:25.104Z,8.30
2023-01-21T19:55:51.595Z,8.30
2023-01-21T19:58:18.072Z,8.30
2023-01-21T20:00:44.631Z,8.30
2023-01-21T20:03:11.105Z,8.30
2023-01-21T20:05:37.591Z,8.30
2023-01-21T20:08:04.090Z,8.30
2023-01-21T20:10:30.608Z,8.30
2023-01-21T20:12:57.081Z,8.30
2023-01-21T20:15:23.610Z,8.40
2023-01-21T20:17:50.101Z,8.40
2023-01-21T20:20:16.817Z,8.30
2023-01-21T20:22:43.337Z,8.30
2023-01-21T20:25:09.812Z,8.30
2023-01-21T20:27:36.298Z,8.30
2023-01-21T20:30:15.359Z,8.40
2023-01-21T20:32:42.620Z,8.30
2023-01-21T20:35:09.093Z,8.30
2023-01-21T20:37:35.589Z,8.30
2023-01-21T20:40:02.096Z,8.30
2023-01-21T20:42:28.598Z,8.30
2023-01-21T20:44:55.077Z,8.30
2023-01-21T20:47:32.414Z,8.30
2023-01-21T20:50:05.122Z,8.30
2023-01-21T20:52:31.597Z,8.30
2023-01-21T20:54:58.065Z,8.30
2023-01-21T20:57:26.882Z,8.30
2023-01-21T20:59:53.345Z,8.30
2023-01-21T21:02:19.871Z,8.30
2023-01-21T21:04:46.388Z,8.30
2023-01-21T21:07:12.895Z,8.30
2023-01-21T21:09:39.381Z,8.30
2023-01-21T21:12:05.876Z,8.30
2023-01-21T21:14:32.351Z,8.30
2023-01-21T21:16:58.844Z,8.30
2023-01-21T21:19:25.376Z,8.30
2023-01-21T21:21:51.864Z,8.30
2023-01-21T21:24:18.334Z,8.30
2023-01-21T21:26:44.827Z,8.30
2023-01-21T21:29:11.329Z,8.30
2023-01-21T21:31:37.845Z,8.30
2023-01-21T21:34:04.352Z,8.30
2023-01-21T21:36:30.832Z,8.30
2023-01-21T21:38:57.314Z,8.30
2023-01-21T21:41:23.777Z,8.30
2023-01-21T21:43:50.228Z,8.40
2023-01-21T21:46:16.747Z,8.30
2023-01-21T21:48:43.291Z,8.30
2023-01-21T21:51:09.918Z,8.30
2023-01-21T21:53:36.415Z,8.30
2023-01-21T21:56:02.924Z,8.30
2023-01-21T21:58:29.380Z,8.30
2023-01-21T22:00:55.904Z,8.30
2023-01-21T22:03:22.417Z,8.30
2023-01-21T22:05:48.907Z,8.30
2023-01-21T22:08:15.373Z,8.30
2023-01-21T22:10:41.877Z,8.30
2023-01-21T22:13:08.356Z,8.30
2023-01-21T22:15:34.856Z,8.30
2023-01-21T22:18:01.339Z,8.30
2023-01-21T22:20:27.838Z,8.20
2023-01-21T22:22:54.302Z,8.30
2023-01-21T22:25:20.792Z,8.30
2023-01-21T22:27:47.286Z,8.30
2023-01-21T22:30:13.767Z,8.30
2023-01-21T22:32:40.283Z,8.30
2023-01-21T22:35:06.756Z,8.30
2023-01-21T22:37:33.230Z,8.30
2023-01-21T22:39:59.765Z,8.30
2023-01-21T22:42:26.259Z,8.30
2023-01-21T22:44:52.719Z,8.30
2023-01-21T22:47:19.189Z,8.20
2023-01-21T22:49:45.660Z,8.30
2023-01-21T22:52:12.159Z,8.20
2023-01-21T22:54:38.631Z,8.30
2023-01-21T22:57:05.121Z,8.30
2023-01-21T22:59:31.606Z,8.30
2023-01-21T23:01:58.080Z,8.20
2023-01-21T23:04:24.581Z,8.20
2023-01-21T23:06:51.084Z,8.20
2023-01-21T23:09:17.556Z,8.10
2023-01-21T23:11:44.042Z,8.10
2023-01-21T23:14:10.505Z,8.10
2023-01-21T23:16:36.994Z,8.10
2023-01-21T23:19:03.475Z,8.10
2023-01-21T23:21:33.028Z,8.10
2023-01-21T23:23:59.504Z,8.10
2023-01-21T23:26:25.991Z,8.10
2023-01-21T23:28:52.451Z,8.00
2023-01-21T23:31:19.004Z,8.10
2023-01-21T23:33:45.504Z,8.10
2023-01-21T23:36:15.127Z,8.10
2023-01-21T23:38:41.637Z,8.10
2023-01-21T23:41:08.122Z,8.10
2023-01-21T23:43:34.597Z,8.10
2023-01-21T23:46:01.159Z,8.10
2023-01-21T23:48:27.650Z,8.00
2023-01-21T23:50:54.139Z,8.10
2023-01-21T23:53:20.604Z,8.00
2023-01-21T23:55:47.079Z,8.00
2023-01-21T23:58:13.548Z,8.00
